Time;durP1;ratioP1;P1;durP2;ratioP2;P2;SDS_P1;SDS_P2;PMS_P1;PMS_P2;Temp;Humidity;BMP_temperature;BMP_pressure;BME280_temperature;BME280_humidity;BME280_pressure;Samples;Min_cycle;Max_cycle;Signal;HPM_P1;HPM_P2
2022/10/20 07:10:32;;;;;;;16.17;11.57;;;14.30;99.90;;;;;;5081083;23;20506;-79
2022/10/20 07:12:59;;;;;;;17.48;11.43;;;14.30;99.90;;;;;;4886210;29;20064;-78
2022/10/20 07:15:26;;;;;;;22.58;16.85;;;14.40;99.90;;;;;;4895060;29;20055;-80
2022/10/20 07:17:52;;;;;;;21.60;15.07;;;14.40;99.90;;;;;;4887372;29;20080;-81
2022/10/20 07:20:19;;;;;;;17.08;12.25;;;14.40;99.90;;;;;;4884239;29;20061;-82
2022/10/20 07:22:46;;;;;;;23.45;12.07;;;14.50;99.90;;;;;;4897782;29;20052;-80
2022/10/20 07:25:12;;;;;;;21.23;13.07;;;14.50;99.90;;;;;;4892661;29;20525;-78
2022/10/20 07:27:39;;;;;;;27.05;13.77;;;14.60;99.90;;;;;;4882775;29;20479;-80
2022/10/20 07:30:06;;;;;;;19.30;12.25;;;14.60;99.90;;;;;;4885480;29;20108;-84
2022/10/20 07:32:33;;;;;;;18.63;12.23;;;14.60;99.90;;;;;;4890171;29;20052;-81
2022/10/20 07:35:00;;;;;;;22.83;13.80;;;14.70;99.90;;;;;;4889417;29;20064;-81
2022/10/20 07:37:26;;;;;;;21.15;13.73;;;14.80;99.90;;;;;;4883705;29;20053;-79
2022/10/20 07:39:53;;;;;;;23.63;14.80;;;14.80;99.90;;;;;;4888725;29;20060;-82
2022/10/20 07:42:19;;;;;;;21.38;14.63;;;14.90;99.90;;;;;;4885927;29;20049;-79
2022/10/20 07:44:46;;;;;;;27.05;15.65;;;14.90;99.90;;;;;;4883359;29;20141;-81
2022/10/20 07:47:13;;;;;;;25.52;16.80;;;14.90;99.90;;;;;;4875202;29;20698;-79
2022/10/20 07:49:39;;;;;;;25.67;15.52;;;15.00;99.90;;;;;;4890285;29;20045;-79
2022/10/20 07:52:11;;;;;;;29.05;17.65;;;15.00;99.90;;;;;;4879818;29;20076;-80
2022/10/20 07:54:37;;;;;;;26.10;16.63;;;15.00;99.90;;;;;;4880849;29;20053;-82
2022/10/20 07:57:04;;;;;;;27.27;18.85;;;15.10;99.90;;;;;;4876462;29;20057;-81
2022/10/20 07:59:31;;;;;;;28.48;19.42;;;15.10;99.90;;;;;;4878173;29;20053;-83
2022/10/20 08:01:57;;;;;;;30.38;19.77;;;15.20;99.90;;;;;;4886459;29;20049;-82
2022/10/20 08:04:26;;;;;;;25.95;16.83;;;15.30;99.90;;;;;;4880063;29;20503;-81
2022/10/20 08:06:53;;;;;;;32.78;18.20;;;15.30;99.90;;;;;;4893948;29;20057;-81
2022/10/20 08:09:20;;;;;;;25.85;18.77;;;15.40;99.90;;;;;;4885277;29;20055;-82
2022/10/20 08:11:46;;;;;;;28.63;18.02;;;15.40;99.90;;;;;;4891581;23;20048;-82
2022/10/20 08:14:20;;;;;;;29.08;17.70;;;15.50;99.90;;;;;;4881418;29;20121;-81
2022/10/20 08:16:46;;;;;;;27.50;18.65;;;15.50;99.90;;;;;;4880625;29;20466;-80
2022/10/20 08:19:13;;;;;;;30.67;18.63;;;15.60;99.90;;;;;;4880960;29;20080;-81
2022/10/20 08:21:41;;;;;;;27.45;18.08;;;15.60;99.90;;;;;;4875746;29;20040;-79
2022/10/20 08:24:08;;;;;;;24.48;17.35;;;15.70;99.90;;;;;;4885584;29;20056;-80
2022/10/20 08:26:34;;;;;;;24.10;16.00;;;15.80;99.90;;;;;;4885008;29;20057;-81
2022/10/20 08:29:01;;;;;;;25.77;16.38;;;15.80;99.90;;;;;;4878727;29;20056;-80
2022/10/20 08:31:28;;;;;;;22.90;15.55;;;15.90;99.90;;;;;;4876428;29;20396;-81
2022/10/20 08:33:55;;;;;;;24.20;14.02;;;16.00;99.90;;;;;;4882425;29;20068;-79
2022/10/20 08:36:22;;;;;;;25.70;14.85;;;16.10;99.90;;;;;;4870863;29;20056;-81
2022/10/20 08:38:48;;;;;;;20.77;12.88;;;16.10;99.90;;;;;;4879745;29;20110;-81
2022/10/20 08:41:28;;;;;;;18.60;12.40;;;16.20;99.90;;;;;;4887748;29;20059;-81
2022/10/20 08:44:20;;;;;;;17.80;10.60;;;16.30;99.90;;;;;;4884579;29;20064;-80
2022/10/20 08:46:47;;;;;;;21.42;10.48;;;16.40;99.90;;;;;;4880553;29;20044;-80
2022/10/20 08:49:29;;;;;;;13.88;10.55;;;16.40;99.90;;;;;;4883931;29;20057;-79
2022/10/20 08:51:57;;;;;;;18.75;9.70;;;16.50;99.90;;;;;;4880656;29;20063;-80
2022/10/20 08:54:24;;;;;;;14.25;9.60;;;16.60;99.90;;;;;;4886431;29;20060;-80
2022/10/20 08:56:51;;;;;;;17.83;11.23;;;16.70;99.90;;;;;;4882663;29;20059;-81
2022/10/20 08:59:26;;;;;;;15.65;11.15;;;16.80;99.90;;;;;;4885992;29;20065;-80
2022/10/20 09:01:54;;;;;;;15.70;10.55;;;16.80;99.90;;;;;;4886238;29;20080;-82
2022/10/20 09:04:41;;;;;;;16.58;9.20;;;16.90;99.90;;;;;;4888638;29;20045;-81
2022/10/20 09:07:30;;;;;;;17.55;10.00;;;17.00;99.90;;;;;;4885801;29;20057;-80
2022/10/20 09:10:11;;;;;;;14.10;8.82;;;17.00;99.90;;;;;;4887456;29;20053;-80
2022/10/20 09:12:42;;;;;;;14.60;7.60;;;17.10;99.90;;;;;;4876829;29;20049;-81
2022/10/20 09:15:14;;;;;;;11.68;6.57;;;17.20;99.90;;;;;;4883223;29;20049;-84
2022/10/20 09:17:44;;;;;;;11.77;6.15;;;17.30;99.90;;;;;;4895880;29;20417;-84
2022/10/20 09:20:24;;;;;;;13.77;5.75;;;17.30;99.90;;;;;;4879244;29;20064;-80
2022/10/20 09:22:51;;;;;;;11.00;5.93;;;17.40;99.90;;;;;;4882390;29;20054;-78
2022/10/20 09:25:22;;;;;;;14.60;6.05;;;17.50;99.90;;;;;;4887105;29;20494;-81
2022/10/20 09:27:50;;;;;;;12.55;5.07;;;17.60;99.90;;;;;;4886842;29;20545;-81
2022/10/20 09:30:32;;;;;;;12.90;5.88;;;17.70;99.90;;;;;;4885849;29;20053;-81
2022/10/20 09:32:59;;;;;;;11.75;7.22;;;17.80;99.90;;;;;;4884946;29;20438;-80
2022/10/20 09:35:31;;;;;;;27.55;9.57;;;17.80;99.90;;;;;;4894650;29;20115;-79
2022/10/20 09:38:10;;;;;;;17.95;7.78;;;17.80;99.90;;;;;;4891258;29;20463;-80
2022/10/20 09:41:05;;;;;;;22.65;10.23;;;17.90;99.90;;;;;;4890534;29;20056;-80
2022/10/20 09:43:32;;;;;;;17.90;9.23;;;17.90;99.90;;;;;;4883536;29;20052;-80
2022/10/20 09:46:05;;;;;;;16.38;8.60;;;17.90;99.90;;;;;;4883021;29;20064;-80
2022/10/20 09:48:35;;;;;;;24.85;7.18;;;17.90;99.90;;;;;;4884733;29;20514;-80
2022/10/20 09:51:04;;;;;;;12.43;5.63;;;17.90;99.90;;;;;;4876070;29;20049;-80
2022/10/20 09:53:50;;;;;;;16.17;5.88;;;17.90;99.90;;;;;;4885508;29;20061;-80
2022/10/20 09:56:45;;;;;;;15.15;4.35;;;17.90;99.90;;;;;;4881602;29;20044;-79
2022/10/20 09:59:26;;;;;;;10.25;4.30;;;18.00;99.90;;;;;;4884974;29;20056;-80
2022/10/20 10:02:22;;;;;;;16.80;4.18;;;18.00;99.90;;;;;;4883969;29;20060;-81
2022/10/20 10:04:51;;;;;;;18.35;3.70;;;18.00;99.90;;;;;;4871340;29;20077;-80
2022/10/20 10:07:21;;;;;;;13.32;3.90;;;18.00;99.90;;;;;;4881303;29;20143;-80
2022/10/20 10:10:02;;;;;;;9.02;3.55;;;18.00;99.90;;;;;;4886353;29;20072;-80
2022/10/20 10:12:34;;;;;;;13.38;3.78;;;18.00;99.90;;;;;;4880856;29;20052;-81
2022/10/20 10:15:22;;;;;;;10.40;3.35;;;18.10;99.90;;;;;;4883667;29;20100;-79
2022/10/20 10:17:49;;;;;;;9.50;3.28;;;18.20;99.90;;;;;;4886135;29;20511;-80
2022/10/20 10:20:16;;;;;;;9.13;3.40;;;18.30;99.90;;;;;;4879953;29;20578;-80
2022/10/20 10:22:43;;;;;;;13.05;3.78;;;18.30;99.90;;;;;;4884386;29;20052;-79
2022/10/20 10:25:26;;;;;;;11.77;3.35;;;18.40;99.90;;;;;;4887398;29;20517;-79
2022/10/20 10:28:07;;;;;;;18.30;3.72;;;18.40;99.90;;;;;;4887923;29;20079;-80
2022/10/20 10:30:37;;;;;;;13.85;4.00;;;18.40;99.90;;;;;;4883819;29;20049;-82
2022/10/20 10:33:22;;;;;;;14.37;4.70;;;18.50;99.90;;;;;;4886588;29;20116;-81
2022/10/20 10:35:49;;;;;;;10.77;3.42;;;18.50;99.90;;;;;;4886376;29;20337;-81
2022/10/20 10:38:16;;;;;;;17.98;7.50;;;18.50;99.90;;;;;;4878187;29;20057;-80
2022/10/20 10:41:09;;;;;;;20.15;7.38;;;18.60;99.90;;;;;;4883814;29;20508;-81
2022/10/20 10:44:01;;;;;;;12.43;7.40;;;18.60;99.90;;;;;;4880497;29;20053;-81
2022/10/20 10:47:14;;;;;;;13.02;7.40;;;18.60;99.90;;;;;;4887370;29;20048;-79
2022/10/20 10:49:49;;;;;;;11.68;7.28;;;18.60;99.90;;;;;;4889965;29;20049;-80
2022/10/20 10:52:35;;;;;;;11.32;6.95;;;18.60;99.90;;;;;;4885703;29;20057;-81
2022/10/20 10:55:20;;;;;;;11.20;6.82;;;18.70;99.90;;;;;;4892438;29;20052;-80
2022/10/20 10:58:17;;;;;;;14.50;7.10;;;18.70;99.90;;;;;;4883117;29;20057;-80
2022/10/20 11:00:52;;;;;;;13.27;7.38;;;18.70;99.90;;;;;;4877701;29;20045;-80
2022/10/20 11:03:46;;;;;;;15.45;7.80;;;18.70;99.90;;;;;;4884909;29;20052;-80
2022/10/20 11:06:20;;;;;;;13.23;8.45;;;18.70;99.90;;;;;;4880707;29;20064;-80
2022/10/20 11:09:09;;;;;;;10.25;7.80;;;18.80;99.90;;;;;;4877676;29;20049;-79
2022/10/20 11:11:58;;;;;;;12.85;8.18;;;18.80;99.90;;;;;;4886476;29;20059;-80
2022/10/20 11:14:59;;;;;;;14.63;7.38;;;18.80;99.90;;;;;;4884221;29;20526;-80
2022/10/20 11:17:51;;;;;;;19.80;10.15;;;18.80;99.90;;;;;;4882869;29;20053;-79
2022/10/20 11:21:02;;;;;;;16.98;10.68;;;18.80;99.90;;;;;;4889726;29;20400;-79
2022/10/20 11:23:44;;;;;;;16.80;10.55;;;18.80;99.90;;;;;;4884760;29;20497;-80
2022/10/20 11:26:34;;;;;;;17.42;11.43;;;18.70;99.90;;;;;;4885149;29;20053;-80
2022/10/20 11:29:05;;;;;;;22.08;10.50;;;18.80;99.90;;;;;;4890474;29;20056;-81
2022/10/20 11:32:02;;;;;;;18.13;10.82;;;18.80;99.90;;;;;;4893338;29;20506;-81
2022/10/20 11:34:37;;;;;;;15.13;10.70;;;18.80;99.90;;;;;;4881338;29;20068;-80
2022/10/20 11:37:12;;;;;;;15.85;8.95;;;18.90;99.90;;;;;;4883149;29;20084;-81
2022/10/20 11:39:44;;;;;;;17.40;9.82;;;18.90;99.90;;;;;;4897162;29;20051;-85
2022/10/20 11:42:26;;;;;;;16.70;9.40;;;19.00;99.90;;;;;;4896888;29;20045;-84
2022/10/20 11:44:55;;;;;;;17.27;8.80;;;19.10;99.90;;;;;;4905493;29;20104;-83
2022/10/20 11:47:35;;;;;;;15.93;10.33;;;19.10;99.90;;;;;;4888895;29;20049;-84
2022/10/20 11:50:09;;;;;;;12.18;8.18;;;19.20;99.90;;;;;;4900274;29;20328;-84
2022/10/20 11:52:36;;;;;;;16.83;8.77;;;19.20;99.90;;;;;;4908332;29;20112;-84
2022/10/20 11:55:25;;;;;;;13.95;7.65;;;19.30;99.90;;;;;;4903649;29;20064;-83
2022/10/20 11:58:26;;;;;;;13.80;7.50;;;19.30;99.90;;;;;;4904353;29;20121;-84
2022/10/20 12:01:08;;;;;;;17.20;8.02;;;19.30;99.90;;;;;;4891038;29;20063;-83
2022/10/20 12:03:55;;;;;;;17.98;7.15;;;19.40;99.90;;;;;;4902156;29;20057;-84
2022/10/20 12:06:33;;;;;;;16.27;7.68;;;19.40;99.90;;;;;;4910827;29;20115;-84
2022/10/20 12:09:19;;;;;;;13.68;6.90;;;19.40;99.90;;;;;;4905565;29;20049;-85
2022/10/20 12:11:58;;;;;;;11.93;5.97;;;19.40;99.90;;;;;;4907136;29;20044;-85
2022/10/20 12:14:35;;;;;;;19.40;7.50;;;19.40;99.90;;;;;;4918056;29;20056;-85
2022/10/20 12:17:04;;;;;;;18.45;6.70;;;19.40;99.90;;;;;;4909569;29;20093;-83
2022/10/20 12:19:35;;;;;;;15.35;6.72;;;19.50;99.90;;;;;;4894443;29;20049;-84
2022/10/20 12:22:12;;;;;;;17.00;7.35;;;19.50;99.90;;;;;;4880505;29;20625;-84
2022/10/20 12:24:41;;;;;;;23.67;6.97;;;19.60;99.90;;;;;;4887368;29;20439;-84
2022/10/20 12:27:07;;;;;;;15.40;5.72;;;19.60;99.90;;;;;;4879218;29;20136;-84
2022/10/20 12:29:34;;;;;;;13.18;6.75;;;19.60;99.90;;;;;;4871807;29;20097;-84
2022/10/20 12:32:25;;;;;;;8.75;5.38;;;19.60;99.90;;;;;;4875067;29;20136;-84
2022/10/20 12:35:21;;;;;;;12.85;5.78;;;19.50;99.90;;;;;;4885334;29;20513;-85
2022/10/20 12:37:55;;;;;;;14.55;6.70;;;19.50;99.90;;;;;;4880863;29;20058;-84
2022/10/20 12:40:29;;;;;;;13.27;6.80;;;19.50;99.90;;;;;;4889623;29;20053;-83
2022/10/20 12:42:57;;;;;;;13.45;7.50;;;19.50;99.90;;;;;;4880199;29;20046;-83
2022/10/20 12:45:40;;;;;;;13.65;8.02;;;19.40;99.90;;;;;;4883407;29;20049;-83
2022/10/20 12:48:18;;;;;;;23.77;7.93;;;19.40;99.90;;;;;;4885826;29;20049;-83
2022/10/20 12:50:48;;;;;;;14.45;7.60;;;19.40;99.90;;;;;;4888039;29;20135;-84
2022/10/20 12:53:18;;;;;;;17.23;8.60;;;19.40;99.90;;;;;;4886093;29;20065;-84
2022/10/20 12:56:09;;;;;;;14.23;7.85;;;19.40;99.90;;;;;;4883398;29;20144;-84
2022/10/20 12:59:07;;;;;;;14.70;8.05;;;19.40;99.90;;;;;;4880564;29;20068;-84
2022/10/20 13:02:08;;;;;;;13.48;7.63;;;19.40;99.90;;;;;;4882028;29;20053;-84
2022/10/20 13:04:56;;;;;;;16.15;7.95;;;19.50;99.90;;;;;;4883575;29;20081;-83
2022/10/20 13:07:45;;;;;;;17.58;7.55;;;19.50;99.90;;;;;;4886226;29;20052;-83
2022/10/20 13:10:30;;;;;;;13.57;8.13;;;19.60;99.90;;;;;;4896377;29;20053;-84
2022/10/20 13:13:02;;;;;;;12.45;7.35;;;19.60;99.90;;;;;;4886663;29;20144;-84
2022/10/20 13:15:37;;;;;;;15.68;7.10;;;19.60;99.90;;;;;;4869651;29;20534;-84
2022/10/20 13:18:10;;;;;;;14.70;7.53;;;19.60;99.90;;;;;;4879715;29;20056;-85
2022/10/20 13:20:55;;;;;;;8.77;6.10;;;19.50;99.90;;;;;;4883372;29;20057;-78
2022/10/20 13:23:36;;;;;;;18.13;7.57;;;19.60;99.90;;;;;;4882228;29;20060;-80
2022/10/20 13:26:20;;;;;;;12.85;7.20;;;19.50;99.90;;;;;;4895843;29;20525;-80
2022/10/20 13:28:49;;;;;;;9.30;7.05;;;19.50;99.90;;;;;;4888064;29;20119;-81
2022/10/20 13:31:37;;;;;;;13.82;6.93;;;19.40;99.90;;;;;;4888626;29;20045;-79
2022/10/20 13:34:26;;;;;;;14.85;6.95;;;19.40;99.90;;;;;;4882398;29;20049;-84
2022/10/20 13:37:15;;;;;;;20.90;7.63;;;19.40;99.90;;;;;;4877162;29;20056;-86
2022/10/20 13:40:10;;;;;;;15.35;7.63;;;19.30;99.90;;;;;;4881631;29;20400;-81
2022/10/20 13:43:14;;;;;;;13.23;7.18;;;19.30;99.90;;;;;;4879708;29;20053;-81
2022/10/20 13:45:59;;;;;;;20.60;8.43;;;19.30;99.90;;;;;;4881783;29;20127;-80
2022/10/20 13:48:53;;;;;;;15.15;7.43;;;19.20;99.90;;;;;;4893404;29;20049;-81
2022/10/20 13:51:25;;;;;;;16.17;8.35;;;19.20;99.90;;;;;;4879049;29;20057;-81
2022/10/20 13:53:55;;;;;;;13.95;8.80;;;19.10;99.90;;;;;;4887175;29;20089;-81
2022/10/20 13:56:36;;;;;;;;;;;19.10;99.90;;;;;;4874943;29;20060;-81
2022/10/20 13:59:10;;;;;;;22.48;9.18;;;19.10;99.90;;;;;;4885059;29;19931;-81
2022/10/20 14:01:37;;;;;;;17.90;7.50;;;19.00;99.90;;;;;;4886057;29;20056;-81
2022/10/20 14:04:24;;;;;;;14.95;7.22;;;19.00;99.90;;;;;;4893461;29;20053;-80
2022/10/20 14:06:51;;;;;;;13.55;6.75;;;19.00;99.90;;;;;;4882612;29;20063;-81
2022/10/20 14:09:21;;;;;;;13.32;6.43;;;18.90;99.90;;;;;;4882688;29;20053;-79
2022/10/20 14:11:53;;;;;;;17.40;7.40;;;19.00;99.90;;;;;;4874538;29;20064;-78
2022/10/20 14:14:24;;;;;;;16.60;6.07;;;19.00;99.90;;;;;;4876479;29;20069;-81
2022/10/20 14:17:00;;;;;;;13.05;5.80;;;19.00;99.90;;;;;;4898462;29;20056;-81
2022/10/20 14:19:27;;;;;;;17.05;6.13;;;19.10;99.90;;;;;;4890282;29;20491;-81
2022/10/20 14:21:57;;;;;;;17.90;6.82;;;19.10;99.90;;;;;;4892104;29;20068;-80
2022/10/20 14:24:31;;;;;;;9.37;5.77;;;19.10;99.90;;;;;;4886905;29;20503;-80
2022/10/20 14:27:01;;;;;;;15.35;7.28;;;19.20;99.90;;;;;;4891621;29;20297;-80
2022/10/20 14:29:31;;;;;;;13.15;7.00;;;19.20;99.90;;;;;;4886760;29;20090;-81
2022/10/20 14:31:59;;;;;;;14.68;7.15;;;19.20;99.90;;;;;;4892330;29;20056;-81
2022/10/20 14:34:32;;;;;;;18.10;6.57;;;19.20;99.90;;;;;;4892965;29;20049;-81
2022/10/20 14:36:59;;;;;;;22.33;7.05;;;19.20;99.90;;;;;;4890819;29;20056;-81
2022/10/20 14:39:36;;;;;;;11.48;5.70;;;19.20;99.90;;;;;;4895926;29;20060;-81
2022/10/20 14:42:20;;;;;;;18.35;6.97;;;19.20;99.90;;;;;;4887836;29;20045;-79
2022/10/20 14:44:49;;;;;;;11.23;5.85;;;19.30;99.90;;;;;;4907057;29;20060;-81
2022/10/20 14:47:19;;;;;;;16.92;6.43;;;19.30;99.90;;;;;;4888069;29;20068;-81
2022/10/20 14:49:51;;;;;;;16.52;6.18;;;19.30;99.90;;;;;;4895680;29;20148;-81
2022/10/20 14:52:18;;;;;;;15.48;6.22;;;19.30;99.90;;;;;;4886824;29;20065;-81
2022/10/20 14:54:49;;;;;;;10.77;6.50;;;19.30;99.90;;;;;;4881456;29;20053;-80
2022/10/20 14:57:16;;;;;;;16.65;7.43;;;19.20;99.90;;;;;;4890274;29;20059;-80
2022/10/20 14:59:58;;;;;;;13.25;7.10;;;19.10;99.90;;;;;;4892766;29;20067;-78
2022/10/20 15:02:27;;;;;;;14.15;7.63;;;19.10;99.90;;;;;;4878704;29;20061;-78
2022/10/20 15:04:54;;;;;;;12.48;7.03;;;19.10;99.90;;;;;;4884463;29;20538;-80
2022/10/20 15:07:33;;;;;;;21.02;8.15;;;19.00;99.90;;;;;;4889169;29;20059;-79
2022/10/20 15:10:13;;;;;;;15.88;8.30;;;19.00;99.90;;;;;;4887776;29;20136;-80
2022/10/20 15:12:43;;;;;;;18.30;7.88;;;18.90;99.90;;;;;;4889631;29;20056;-80
2022/10/20 15:15:09;;;;;;;15.50;9.00;;;18.90;99.90;;;;;;4886209;29;20057;-80
2022/10/20 15:17:41;;;;;;;17.50;9.23;;;18.90;99.90;;;;;;4888824;29;20053;-80
2022/10/20 15:20:31;;;;;;;19.02;9.75;;;18.80;99.90;;;;;;4884779;29;20529;-80
2022/10/20 15:23:09;;;;;;;17.25;8.57;;;18.80;99.90;;;;;;4882242;29;20042;-79
2022/10/20 15:25:53;;;;;;;14.40;8.98;;;18.80;99.90;;;;;;4891098;29;20048;-78
2022/10/20 15:28:22;;;;;;;12.38;8.38;;;18.70;99.90;;;;;;4880995;29;20507;-80
2022/10/20 15:30:48;;;;;;;15.55;10.75;;;18.80;99.90;;;;;;4883667;29;20052;-79
2022/10/20 15:33:15;;;;;;;15.77;10.07;;;18.70;99.90;;;;;;4880625;29;20434;-80
2022/10/20 15:35:45;;;;;;;16.15;9.43;;;18.70;99.90;;;;;;4887339;29;20049;-78
2022/10/20 15:38:13;;;;;;;;;;;18.70;99.90;;;;;;4891367;29;20056;-78
2022/10/20 15:40:40;;;;;;;17.17;9.88;;;18.60;99.90;;;;;;4881061;29;19924;-81
2022/10/20 15:43:14;;;;;;;20.75;9.85;;;18.60;99.90;;;;;;4881056;29;20092;-80
2022/10/20 15:45:49;;;;;;;18.60;10.65;;;18.50;99.90;;;;;;4883973;29;20502;-80
2022/10/20 15:48:17;;;;;;;21.20;10.25;;;18.60;99.90;;;;;;4885441;29;20132;-81
2022/10/20 15:50:44;;;;;;;20.13;10.88;;;18.50;99.90;;;;;;4881630;29;20056;-78
2022/10/20 15:53:11;;;;;;;20.77;10.02;;;18.50;99.90;;;;;;4888623;29;20060;-80
2022/10/20 15:55:41;;;;;;;19.02;10.90;;;18.50;99.90;;;;;;4882653;29;20403;-78
2022/10/20 15:58:08;;;;;;;21.88;11.02;;;18.50;99.90;;;;;;4882985;29;20438;-77
2022/10/20 16:00:35;;;;;;;22.05;10.93;;;18.50;99.90;;;;;;4878415;29;20061;-79
2022/10/20 16:03:03;;;;;;;20.90;11.48;;;18.40;99.90;;;;;;4878731;29;20049;-78
2022/10/20 16:05:30;;;;;;;19.00;10.80;;;18.40;99.90;;;;;;4886219;29;20052;-76
2022/10/20 16:07:57;;;;;;;52.47;41.47;;;18.40;99.90;;;;;;4886893;29;20045;-78
2022/10/20 16:10:28;;;;;;;32.13;22.90;;;18.30;99.90;;;;;;4888197;29;20052;-79
2022/10/20 16:12:56;;;;;;;20.02;10.82;;;18.30;99.90;;;;;;4886757;29;20067;-79
2022/10/20 16:15:24;;;;;;;17.67;10.40;;;18.30;99.90;;;;;;4884488;29;20059;-79
2022/10/20 16:17:57;;;;;;;18.55;10.45;;;18.20;99.90;;;;;;4877211;29;20057;-79
2022/10/20 16:20:23;;;;;;;25.27;12.05;;;18.20;99.90;;;;;;4877566;29;20148;-80
2022/10/20 16:22:50;;;;;;;17.83;11.70;;;18.20;99.90;;;;;;4882954;29;20057;-80
2022/10/20 16:25:17;;;;;;;21.83;11.50;;;18.20;99.90;;;;;;4876182;29;20060;-80
2022/10/20 16:27:43;;;;;;;22.45;12.82;;;18.10;99.90;;;;;;4883227;29;20523;-80
2022/10/20 16:30:10;;;;;;;20.23;13.45;;;18.10;99.90;;;;;;4887189;29;20056;-79
2022/10/20 16:32:37;;;;;;;22.98;13.88;;;18.10;99.90;;;;;;4883691;29;20045;-80
2022/10/20 16:35:04;;;;;;;20.63;12.60;;;18.10;99.90;;;;;;4882561;29;20064;-81
2022/10/20 16:37:32;;;;;;;19.88;13.60;;;18.10;99.90;;;;;;4886740;29;20060;-81
2022/10/20 16:39:59;;;;;;;24.48;11.55;;;18.10;99.90;;;;;;4881836;29;20073;-81
2022/10/20 16:42:28;;;;;;;20.02;11.55;;;18.00;99.90;;;;;;4881829;29;20562;-79
2022/10/20 16:44:56;;;;;;;23.23;13.88;;;18.00;99.90;;;;;;4880498;29;20056;-80
2022/10/20 16:47:24;;;;;;;32.70;25.48;;;18.00;99.90;;;;;;4893702;29;20059;-83
2022/10/20 16:49:51;;;;;;;22.73;12.50;;;18.00;99.90;;;;;;4885719;29;20049;-82
2022/10/20 16:52:18;;;;;;;20.60;12.48;;;17.90;99.90;;;;;;4880755;29;20058;-81
2022/10/20 16:54:45;;;;;;;27.45;14.30;;;17.90;99.90;;;;;;4886294;29;20080;-82
2022/10/20 16:57:12;;;;;;;21.48;13.45;;;17.90;99.90;;;;;;4877528;29;20063;-82
2022/10/20 16:59:40;;;;;;;22.25;14.57;;;17.90;99.90;;;;;;4878189;29;20073;-77
2022/10/20 17:02:06;;;;;;;31.95;18.20;;;17.90;99.90;;;;;;4878528;29;20053;-82
2022/10/20 17:04:33;;;;;;;30.50;18.00;;;17.80;99.90;;;;;;4879611;29;20057;-81
2022/10/20 17:07:00;;;;;;;27.83;15.18;;;17.80;99.90;;;;;;4878331;29;20045;-82
2022/10/20 17:09:28;;;;;;;28.42;15.85;;;17.80;99.90;;;;;;4881757;29;20108;-80
2022/10/20 17:11:56;;;;;;;25.42;15.10;;;17.80;99.90;;;;;;4874992;29;20057;-81
2022/10/20 17:14:22;;;;;;;22.05;14.13;;;17.80;99.90;;;;;;4886425;29;20053;-80
2022/10/20 17:16:49;;;;;;;21.85;14.52;;;17.70;99.90;;;;;;4883706;29;20056;-80
2022/10/20 17:19:16;;;;;;;21.67;12.82;;;17.70;99.90;;;;;;4880847;29;20056;-80
2022/10/20 17:21:42;;;;;;;18.98;13.05;;;17.70;99.90;;;;;;4880077;29;20108;-81
2022/10/20 17:24:11;;;;;;;23.50;14.70;;;17.70;99.90;;;;;;4881875;29;20139;-81
2022/10/20 17:26:39;;;;;;;27.05;14.75;;;17.70;99.90;;;;;;4893127;29;20053;-82
2022/10/20 17:29:07;;;;;;;27.13;14.18;;;17.60;99.90;;;;;;4890394;29;20045;-81
2022/10/20 17:31:34;;;;;;;26.05;15.07;;;17.70;99.90;;;;;;4891450;29;20055;-82
2022/10/20 17:34:01;;;;;;;22.70;13.73;;;17.60;99.90;;;;;;4888189;29;20502;-83
2022/10/20 17:36:29;;;;;;;22.73;13.77;;;17.60;99.90;;;;;;4891297;29;20053;-82
2022/10/20 17:39:04;;;;;;;24.42;14.23;;;17.60;99.90;;;;;;4894119;29;20056;-81
2022/10/20 17:41:31;;;;;;;25.45;14.43;;;17.60;99.90;;;;;;4890023;29;20421;-83
2022/10/20 17:44:03;;;;;;;22.65;15.20;;;17.60;99.90;;;;;;4878012;29;20048;-80
2022/10/20 17:46:30;;;;;;;24.67;13.10;;;17.60;99.90;;;;;;4891532;29;20055;-83
2022/10/20 17:48:56;;;;;;;29.15;14.35;;;17.60;99.90;;;;;;4890694;29;20045;-83
2022/10/20 17:51:25;;;;;;;21.85;14.00;;;17.60;99.90;;;;;;4890544;29;20153;-82
2022/10/20 17:53:57;;;;;;;22.90;13.50;;;17.60;99.90;;;;;;4892500;29;20080;-81
2022/10/20 17:56:27;;;;;;;24.73;15.18;;;17.60;99.90;;;;;;4894717;29;20053;-83
2022/10/20 17:58:55;;;;;;;24.45;15.35;;;17.50;99.90;;;;;;4890802;29;20049;-82
2022/10/20 18:01:33;;;;;;;22.73;14.00;;;17.50;99.90;;;;;;4881664;29;20060;-82
2022/10/20 18:04:11;;;;;;;23.00;15.35;;;17.50;99.90;;;;;;4884411;29;20057;-80
2022/10/20 18:06:39;;;;;;;28.17;16.45;;;17.50;99.90;;;;;;4887152;29;20434;-82
2022/10/20 18:09:12;;;;;;;25.38;16.17;;;17.50;99.90;;;;;;4887660;29;20045;-82
2022/10/20 18:11:42;;;;;;;29.98;15.40;;;17.40;99.90;;;;;;4886883;29;20667;-83
2022/10/20 18:14:08;;;;;;;20.27;15.38;;;17.40;99.90;;;;;;4885936;29;20049;-80
2022/10/20 18:16:36;;;;;;;28.02;15.85;;;17.40;99.90;;;;;;4887843;29;20056;-81
2022/10/20 18:19:04;;;;;;;28.63;16.05;;;17.40;99.90;;;;;;4882579;29;20056;-82
2022/10/20 18:21:32;;;;;;;28.85;18.50;;;17.40;99.90;;;;;;4887128;29;20057;-82
2022/10/20 18:24:01;;;;;;;35.45;19.83;;;17.40;99.90;;;;;;4886717;29;20053;-82
2022/10/20 18:26:29;;;;;;;33.37;19.87;;;17.40;99.90;;;;;;4884685;29;20045;-83
2022/10/20 18:28:57;;;;;;;38.35;20.25;;;17.30;99.90;;;;;;4887948;29;20288;-83
2022/10/20 18:31:26;;;;;;;37.35;20.13;;;17.30;99.90;;;;;;4889279;29;20060;-81
2022/10/20 18:34:02;;;;;;;32.60;20.58;;;17.30;99.90;;;;;;4887973;29;20053;-82
2022/10/20 18:36:33;;;;;;;37.53;21.50;;;17.30;99.90;;;;;;4887642;29;20053;-81
2022/10/20 18:39:02;;;;;;;;;;;17.20;99.90;;;;;;4886761;29;20095;-82
2022/10/20 18:41:32;;;;;;;30.77;18.73;;;17.30;99.90;;;;;;4887989;29;20687;-83
2022/10/20 18:44:00;;;;;;;34.03;18.55;;;17.20;99.90;;;;;;4891503;29;20044;-82
2022/10/20 18:46:29;;;;;;;32.25;19.05;;;17.30;99.90;;;;;;4886458;29;20078;-81
2022/10/20 18:48:56;;;;;;;30.88;18.13;;;17.20;99.90;;;;;;4886468;29;20066;-82
2022/10/20 18:51:23;;;;;;;27.98;18.00;;;17.20;99.90;;;;;;4895714;29;20132;-82
2022/10/20 18:53:53;;;;;;;30.10;18.27;;;17.20;99.90;;;;;;4892322;29;20060;-80
2022/10/20 18:56:22;;;;;;;32.22;18.70;;;17.20;99.90;;;;;;4890024;29;20113;-82
2022/10/20 18:58:54;;;;;;;31.55;17.85;;;17.20;99.90;;;;;;4890570;29;20135;-82
2022/10/20 19:01:24;;;;;;;35.78;19.15;;;17.20;99.90;;;;;;4893189;29;20052;-79
2022/10/20 19:03:53;;;;;;;30.88;17.88;;;17.20;99.90;;;;;;4879517;29;20139;-82
2022/10/20 19:06:22;;;;;;;23.90;16.42;;;17.20;99.90;;;;;;4887495;29;20117;-81
2022/10/20 19:08:58;;;;;;;31.23;18.87;;;17.20;99.90;;;;;;4894373;29;20056;-81
2022/10/20 19:11:27;;;;;;;35.70;18.73;;;17.20;99.90;;;;;;4893690;29;20457;-81
2022/10/20 19:13:54;;;;;;;31.33;17.73;;;17.20;99.90;;;;;;4895390;29;20072;-81
2022/10/20 19:16:24;;;;;;;23.23;17.13;;;17.10;99.90;;;;;;4885499;29;20060;-81
2022/10/20 19:18:53;;;;;;;34.47;17.25;;;17.10;99.90;;;;;;4885873;29;20078;-83
2022/10/20 19:21:20;;;;;;;26.67;16.17;;;17.10;99.90;;;;;;4889385;29;20053;-79
2022/10/20 19:23:50;;;;;;;30.38;17.73;;;17.10;99.90;;;;;;4886566;29;20049;-82
2022/10/20 19:26:20;;;;;;;27.27;16.83;;;17.10;99.90;;;;;;4877693;29;20057;-84
2022/10/20 19:28:50;;;;;;;35.80;18.20;;;17.10;99.90;;;;;;4890150;29;20048;-85
2022/10/20 19:31:30;;;;;;;28.75;17.10;;;17.10;99.90;;;;;;4891508;29;20045;-83
2022/10/20 19:34:04;;;;;;;26.25;17.40;;;17.10;99.90;;;;;;4898411;29;20056;-82
2022/10/20 19:36:31;;;;;;;29.58;16.23;;;17.10;99.90;;;;;;4894775;29;20073;-83
2022/10/20 19:38:58;;;;;;;27.67;16.90;;;17.10;99.90;;;;;;4888841;29;20061;-81
2022/10/20 19:41:25;;;;;;;29.05;17.45;;;17.10;99.90;;;;;;4891727;29;20052;-81
2022/10/20 19:43:52;;;;;;;32.78;17.10;;;17.10;99.90;;;;;;4898129;29;20053;-80
2022/10/20 19:46:20;;;;;;;27.25;16.48;;;17.00;99.90;;;;;;4896435;29;20529;-80
